Time;durP1;ratioP1;P1;durP2;ratioP2;P2;SDS_P1;SDS_P2;PMS_P1;PMS_P2;Temp;Humidity;BMP_temperature;BMP_pressure;BME280_temperature;BME280_humidity;BME280_pressure;Samples;Min_cycle;Max_cycle;Signal;HPM_P1;HPM_P2
2021/12/28 00:02:46;;;;;;;34.47;13.10;;;-5.80;99.90;;;;;;5052024;28;20272;-71
2021/12/28 00:05:35;;;;;;;29.70;8.40;;;-5.80;99.90;;;;;;5057244;28;20232;-71
2021/12/28 00:08:24;;;;;;;25.53;9.00;;;-5.90;99.90;;;;;;5056292;28;20229;-72
2021/12/28 00:11:15;;;;;;;44.23;18.17;;;-6.00;99.90;;;;;;5054788;28;20233;-72
2021/12/28 00:14:05;;;;;;;41.63;17.13;;;-5.90;99.90;;;;;;5052648;28;20228;-71
2021/12/28 00:20:02;;;;;;;41.07;14.87;;;-5.90;99.90;;;;;;5049643;28;20227;-71
2021/12/28 00:22:51;;;;;;;39.90;15.77;;;-5.80;99.90;;;;;;5041776;28;20226;-71
2021/12/28 00:25:39;;;;;;;39.70;14.00;;;-5.70;99.90;;;;;;5038654;28;20221;-70
2021/12/28 00:28:30;;;;;;;45.20;15.80;;;-5.80;99.90;;;;;;5052567;28;20982;-72
2021/12/28 00:31:18;;;;;;;51.40;17.63;;;-5.90;99.90;;;;;;5057415;28;20629;-73
2021/12/28 00:34:07;;;;;;;27.70;9.60;;;-5.80;99.90;;;;;;5054325;28;20597;-71
2021/12/28 00:36:56;;;;;;;29.80;11.80;;;-5.90;99.90;;;;;;5053369;28;20236;-72
2021/12/28 00:39:44;;;;;;;49.67;18.33;;;-5.90;99.90;;;;;;5047102;28;20886;-72
2021/12/28 00:42:33;;;;;;;43.27;16.30;;;-6.00;99.90;;;;;;5028045;28;20730;-72
2021/12/28 00:45:24;;;;;;;52.53;18.07;;;-5.90;99.90;;;;;;5055930;28;20216;-74
2021/12/28 00:48:13;;;;;;;43.60;17.00;;;-6.00;99.90;;;;;;5056196;28;20231;-72
2021/12/28 00:51:02;;;;;;;43.63;15.83;;;-6.00;99.90;;;;;;5052239;28;20237;-73
2021/12/28 00:53:50;;;;;;;47.37;15.00;;;-6.00;99.90;;;;;;5053372;28;20317;-73
2021/12/28 00:56:39;;;;;;;40.97;15.00;;;-6.10;99.90;;;;;;5041202;28;20215;-72
2021/12/28 00:59:28;;;;;;;35.90;12.07;;;-6.00;99.90;;;;;;5053819;28;20220;-73
2021/12/28 01:02:18;;;;;;;39.77;15.10;;;-6.00;99.90;;;;;;5040772;28;20216;-72
2021/12/28 01:05:08;;;;;;;28.93;10.67;;;-6.10;99.90;;;;;;5043816;28;20251;-72
2021/12/28 01:07:57;;;;;;;40.07;15.30;;;-6.10;99.90;;;;;;5056626;28;20266;-72
2021/12/28 01:10:49;;;;;;;40.57;13.47;;;-6.10;99.90;;;;;;5038565;28;20306;-72
2021/12/28 01:13:38;;;;;;;31.63;11.60;;;-6.10;99.90;;;;;;5043623;28;20216;-71
2021/12/28 01:16:26;;;;;;;55.70;19.40;;;-6.10;99.90;;;;;;5041889;28;20220;-73
2021/12/28 01:19:17;;;;;;;31.97;10.67;;;-6.00;99.90;;;;;;5058490;28;20278;-73
2021/12/28 01:22:06;;;;;;;42.30;16.27;;;-6.20;99.90;;;;;;5055100;28;20228;-73
2021/12/28 01:24:55;;;;;;;42.30;17.47;;;-6.30;99.90;;;;;;5049630;28;20751;-71
2021/12/28 01:27:44;;;;;;;51.63;17.13;;;-6.20;99.90;;;;;;5049293;28;20239;-73
2021/12/28 01:30:33;;;;;;;49.47;18.83;;;-6.20;99.90;;;;;;5057084;28;20227;-72
2021/12/28 01:33:22;;;;;;;18.07;6.53;;;-6.20;99.90;;;;;;5050682;28;20263;-71
2021/12/28 01:36:15;;;;;;;44.47;16.63;;;-6.30;99.90;;;;;;5038077;28;20755;-71
2021/12/28 01:39:05;;;;;;;41.50;15.50;;;-6.20;99.90;;;;;;5055678;28;20221;-72
2021/12/28 01:41:54;;;;;;;48.50;17.57;;;-6.20;99.90;;;;;;5051457;28;20522;-72
2021/12/28 01:44:42;;;;;;;45.30;16.50;;;-6.20;99.90;;;;;;5044885;28;20670;-69
2021/12/28 01:47:31;;;;;;;40.10;14.90;;;-6.20;99.90;;;;;;5055825;28;20216;-73
2021/12/28 01:50:20;;;;;;;44.97;14.90;;;-6.10;99.90;;;;;;5052030;28;20216;-72
2021/12/28 01:53:10;;;;;;;39.97;17.13;;;-6.20;99.90;;;;;;5042933;28;20244;-72
2021/12/28 01:56:03;;;;;;;47.50;17.33;;;-6.00;99.90;;;;;;5050194;28;20226;-72
2021/12/28 01:58:53;;;;;;;48.40;17.10;;;-6.20;99.90;;;;;;5041098;28;20221;-72
2021/12/28 02:01:42;;;;;;;36.27;13.50;;;-6.30;99.90;;;;;;5052736;28;20218;-72
2021/12/28 02:04:31;;;;;;;46.03;18.20;;;-6.30;99.90;;;;;;5057998;28;20225;-71
2021/12/28 02:07:20;;;;;;;42.93;16.23;;;-6.30;99.90;;;;;;5056048;28;20218;-73
2021/12/28 02:10:11;;;;;;;44.67;16.73;;;-6.20;99.90;;;;;;5054953;28;20224;-71
2021/12/28 02:12:59;;;;;;;50.60;18.43;;;-6.20;99.90;;;;;;5048719;28;20635;-73
2021/12/28 02:15:49;;;;;;;41.37;16.83;;;-6.10;99.90;;;;;;5053334;28;20802;-72
2021/12/28 02:18:39;;;;;;;46.83;17.03;;;-6.20;99.90;;;;;;5034068;28;20259;-71
2021/12/28 02:21:31;;;;;;;44.87;15.97;;;-6.20;99.90;;;;;;5036407;28;20219;-72
2021/12/28 02:24:19;;;;;;;48.13;19.27;;;-6.20;99.90;;;;;;5050148;28;20212;-72
2021/12/28 02:27:08;;;;;;;43.87;16.67;;;-6.10;99.90;;;;;;5038352;28;20247;-71
2021/12/28 02:29:57;;;;;;;41.47;15.50;;;-6.10;99.90;;;;;;5049724;28;20243;-72
2021/12/28 02:32:47;;;;;;;22.93;8.57;;;-6.10;99.90;;;;;;5035665;28;20228;-72
2021/12/28 02:35:36;;;;;;;38.17;13.07;;;-6.20;99.90;;;;;;5036435;28;20351;-69
2021/12/28 02:38:26;;;;;;;46.70;17.50;;;-6.20;99.90;;;;;;5056834;28;20314;-70
2021/12/28 02:41:16;;;;;;;44.50;15.23;;;-6.20;99.90;;;;;;5054289;28;20220;-72
2021/12/28 02:44:05;;;;;;;39.27;14.63;;;-6.20;99.90;;;;;;5034342;28;20703;-72
2021/12/28 02:46:54;;;;;;;40.87;15.60;;;-6.30;99.90;;;;;;5050492;28;20221;-73
2021/12/28 02:49:42;;;;;;;37.87;15.43;;;-6.30;99.90;;;;;;5051719;28;20243;-72
2021/12/28 02:52:36;;;;;;;53.93;19.53;;;-6.30;99.90;;;;;;5049541;28;20975;-72
2021/12/28 02:55:29;;;;;;;43.40;17.67;;;-6.20;99.90;;;;;;5048835;28;20597;-72
2021/12/28 02:58:28;;;;;;;49.53;18.17;;;-6.10;99.90;;;;;;5043988;28;20771;-69
2021/12/28 03:01:20;;;;;;;44.47;15.67;;;-6.00;99.90;;;;;;5057887;28;20322;-70
2021/12/28 03:04:09;;;;;;;51.87;15.80;;;-6.10;99.90;;;;;;5050712;28;20329;-70
2021/12/28 03:06:59;;;;;;;46.67;17.20;;;-6.20;99.90;;;;;;5051726;28;20691;-72
2021/12/28 03:09:48;;;;;;;24.37;10.53;;;-6.20;99.90;;;;;;5052100;28;20228;-71
2021/12/28 03:12:38;;;;;;;44.93;16.73;;;-6.30;99.90;;;;;;5042760;28;20236;-71
2021/12/28 03:15:27;;;;;;;45.03;14.53;;;-6.30;99.90;;;;;;5051252;28;20221;-71
2021/12/28 03:18:15;;;;;;;35.50;13.27;;;-6.30;99.90;;;;;;5054869;28;20212;-70
2021/12/28 03:21:06;;;;;;;39.33;15.13;;;-6.30;99.90;;;;;;5038063;28;20232;-71
2021/12/28 03:23:56;;;;;;;42.73;14.57;;;-6.40;99.90;;;;;;5051670;28;20566;-73
2021/12/28 03:26:45;;;;;;;35.50;12.53;;;-6.30;99.90;;;;;;5057202;28;20220;-72
2021/12/28 03:29:35;;;;;;;44.87;18.43;;;-6.30;99.90;;;;;;5048486;28;20225;-72
2021/12/28 03:32:23;;;;;;;50.93;16.23;;;-6.30;99.90;;;;;;5034876;28;20744;-72
2021/12/28 03:35:15;;;;;;;21.93;7.80;;;-6.30;99.90;;;;;;5058104;28;20220;-71
2021/12/28 03:38:03;;;;;;;39.07;13.20;;;-6.40;99.90;;;;;;5056058;28;20225;-71
2021/12/28 03:40:54;;;;;;;39.57;16.03;;;-6.40;99.90;;;;;;5054283;28;20226;-71
2021/12/28 03:43:45;;;;;;;43.97;17.47;;;-6.50;99.90;;;;;;5043052;28;20228;-71
2021/12/28 03:46:35;;;;;;;25.20;10.80;;;-6.40;99.90;;;;;;5057581;28;20240;-71
2021/12/28 03:49:24;;;;;;;40.77;17.20;;;-6.50;99.90;;;;;;5055351;28;20239;-71
2021/12/28 03:52:13;;;;;;;45.73;16.03;;;-6.50;99.90;;;;;;5053835;28;20239;-71
2021/12/28 03:55:02;;;;;;;47.13;15.97;;;-6.40;99.90;;;;;;5057390;28;20235;-70
2021/12/28 03:57:51;;;;;;;40.87;16.10;;;-6.40;99.90;;;;;;5042745;28;20220;-71
2021/12/28 04:00:44;;;;;;;12.10;5.83;;;-6.50;99.90;;;;;;5056834;28;20216;-71
2021/12/28 04:03:34;;;;;;;40.87;15.57;;;-6.50;99.90;;;;;;5045668;28;20286;-70
2021/12/28 04:06:23;;;;;;;47.63;17.17;;;-6.60;99.90;;;;;;5060602;28;20220;-70
2021/12/28 04:09:13;;;;;;;46.13;19.47;;;-6.50;99.90;;;;;;5043271;28;21001;-71
2021/12/28 04:12:02;;;;;;;50.43;19.53;;;-6.40;99.90;;;;;;5042494;28;20229;-71
2021/12/28 04:14:51;;;;;;;48.83;16.00;;;-6.30;99.90;;;;;;5042806;28;20300;-72
2021/12/28 04:17:41;;;;;;;21.00;7.33;;;-6.30;99.90;;;;;;5053767;28;20224;-72
2021/12/28 04:20:31;;;;;;;42.23;16.70;;;-6.40;99.90;;;;;;5043367;28;20213;-72
2021/12/28 04:23:20;;;;;;;44.17;15.27;;;-6.40;99.90;;;;;;5056184;28;21204;-72
2021/12/28 04:26:09;;;;;;;41.93;14.53;;;-6.50;99.90;;;;;;5055877;28;20227;-72
2021/12/28 04:28:57;;;;;;;47.00;17.40;;;-6.50;99.90;;;;;;5055874;28;20229;-73
2021/12/28 04:31:47;;;;;;;27.37;9.40;;;-6.50;99.90;;;;;;5056258;28;20319;-72
2021/12/28 04:34:35;;;;;;;44.43;14.23;;;-6.60;99.90;;;;;;5051334;28;20217;-72
2021/12/28 04:37:25;;;;;;;42.43;15.80;;;-6.60;99.90;;;;;;5053195;28;20224;-72
2021/12/28 04:40:14;;;;;;;26.90;10.20;;;-6.60;99.90;;;;;;5055579;28;20623;-72
2021/12/28 04:43:03;;;;;;;44.60;17.43;;;-6.60;99.90;;;;;;5057603;28;20212;-72
2021/12/28 04:45:52;;;;;;;38.60;16.50;;;-6.60;99.90;;;;;;5040017;28;20224;-73
2021/12/28 04:48:41;;;;;;;45.50;15.83;;;-6.60;99.90;;;;;;5053566;28;20297;-72
2021/12/28 04:51:29;;;;;;;46.07;17.93;;;-6.60;99.90;;;;;;5052743;28;20772;-73
2021/12/28 04:54:20;;;;;;;42.80;14.67;;;-6.60;99.90;;;;;;5038007;28;20228;-72
2021/12/28 04:57:09;;;;;;;41.97;14.40;;;-6.60;99.90;;;;;;5050568;28;20232;-73
2021/12/28 04:59:58;;;;;;;36.87;15.50;;;-6.60;99.90;;;;;;5038353;28;20232;-73
2021/12/28 05:02:47;;;;;;;35.97;13.43;;;-6.60;99.90;;;;;;5037653;28;20216;-74
2021/12/28 05:05:37;;;;;;;31.97;12.80;;;-6.60;99.90;;;;;;5054216;28;20220;-73
2021/12/28 05:08:29;;;;;;;49.50;17.63;;;-6.50;99.90;;;;;;5037640;28;20232;-71
2021/12/28 05:11:19;;;;;;;50.03;16.83;;;-6.60;99.90;;;;;;5034375;28;20221;-72
2021/12/28 05:14:08;;;;;;;40.97;14.73;;;-6.50;99.90;;;;;;5051695;28;20228;-73
2021/12/28 05:16:58;;;;;;;40.10;15.30;;;-6.50;99.90;;;;;;5050575;28;20219;-72
2021/12/28 05:19:46;;;;;;;40.70;15.53;;;-6.50;99.90;;;;;;5053762;28;20274;-71
2021/12/28 05:22:35;;;;;;;51.17;17.03;;;-6.40;99.90;;;;;;5057105;28;20628;-70
2021/12/28 05:25:24;;;;;;;51.53;18.00;;;-6.40;99.90;;;;;;5052068;28;20803;-71
2021/12/28 05:28:14;;;;;;;44.83;17.53;;;-6.40;99.90;;;;;;5056841;28;20232;-72
2021/12/28 05:31:03;;;;;;;51.23;19.60;;;-6.30;99.90;;;;;;5049928;28;20254;-72
2021/12/28 05:33:51;;;;;;;42.23;15.93;;;-6.20;99.90;;;;;;5052642;28;20244;-74
2021/12/28 05:36:40;;;;;;;48.57;19.23;;;-6.20;99.90;;;;;;5053302;28;20219;-70
2021/12/28 05:39:28;;;;;;;39.30;13.60;;;-6.10;99.90;;;;;;5057091;28;20711;-72
2021/12/28 05:42:17;;;;;;;34.57;13.57;;;-6.20;99.90;;;;;;5054517;28;20226;-73
2021/12/28 05:45:09;;;;;;;31.27;12.63;;;-6.20;99.90;;;;;;5051384;28;20227;-71
2021/12/28 05:47:58;;;;;;;35.37;13.37;;;-6.10;99.90;;;;;;5041288;28;20232;-70
2021/12/28 05:50:46;;;;;;;26.60;8.83;;;-6.10;99.90;;;;;;5035627;28;20212;-73
2021/12/28 05:53:35;;;;;;;42.50;15.50;;;-6.10;99.90;;;;;;5056183;28;20230;-72
2021/12/28 05:56:27;;;;;;;40.60;15.37;;;-6.10;99.90;;;;;;5049276;28;20243;-73
2021/12/28 05:59:16;;;;;;;37.30;13.87;;;-6.10;99.90;;;;;;5042920;28;20227;-71
2021/12/28 06:02:07;;;;;;;44.73;17.43;;;-6.00;99.90;;;;;;5031820;28;20224;-72
2021/12/28 06:04:56;;;;;;;45.27;18.17;;;-5.90;99.90;;;;;;5041033;28;20221;-70
2021/12/28 06:07:45;;;;;;;40.77;17.13;;;-5.80;99.90;;;;;;5036895;28;20223;-71
2021/12/28 06:10:33;;;;;;;49.10;19.07;;;-5.80;99.90;;;;;;5038225;28;20261;-74
2021/12/28 06:13:23;;;;;;;48.70;18.53;;;-5.70;99.90;;;;;;5036038;28;20229;-71
2021/12/28 06:16:12;;;;;;;43.70;16.20;;;-5.70;99.90;;;;;;5055084;28;20224;-74
2021/12/28 06:19:03;;;;;;;43.27;19.17;;;-5.70;99.90;;;;;;5052685;28;20302;-72
2021/12/28 06:21:51;;;;;;;44.47;18.53;;;-5.60;99.90;;;;;;5055616;28;20244;-72
2021/12/28 06:24:40;;;;;;;36.90;16.77;;;-5.50;99.90;;;;;;5052853;28;20279;-71
2021/12/28 06:27:29;;;;;;;52.03;19.57;;;-5.50;99.90;;;;;;5052161;28;20691;-72
2021/12/28 06:30:17;;;;;;;42.40;16.43;;;-5.60;99.90;;;;;;5042011;28;20226;-72
2021/12/28 06:33:06;;;;;;;45.83;17.10;;;-5.50;99.90;;;;;;5050084;28;20705;-72
2021/12/28 06:35:56;;;;;;;41.43;16.93;;;-5.50;99.90;;;;;;5038519;28;20211;-73
2021/12/28 06:38:45;;;;;;;36.90;16.97;;;-5.60;99.90;;;;;;5048795;28;20221;-72
2021/12/28 06:41:34;;;;;;;43.23;18.57;;;-5.60;99.90;;;;;;5040189;28;20212;-74
2021/12/28 06:44:23;;;;;;;45.90;18.53;;;-5.50;99.90;;;;;;5044111;28;21307;-73
2021/12/28 06:47:11;;;;;;;39.63;16.10;;;-5.50;99.90;;;;;;5042189;28;20220;-72
2021/12/28 06:50:00;;;;;;;42.63;16.23;;;-5.60;99.90;;;;;;5033334;28;20693;-72
2021/12/28 06:52:50;;;;;;;27.57;11.93;;;-5.50;99.90;;;;;;5036141;28;20232;-72
2021/12/28 06:55:39;;;;;;;49.23;18.87;;;-5.50;99.90;;;;;;5039897;28;20695;-70
2021/12/28 06:58:27;;;;;;;43.90;18.10;;;-5.40;99.90;;;;;;5051360;28;20236;-71
2021/12/28 07:01:16;;;;;;;47.20;18.83;;;-5.40;99.90;;;;;;5049391;28;20234;-72
2021/12/28 07:04:05;;;;;;;58.43;19.90;;;-5.30;99.90;;;;;;5049838;28;20692;-72
2021/12/28 07:06:54;;;;;;;52.87;20.37;;;-5.20;99.90;;;;;;5035924;28;20234;-71
2021/12/28 07:09:44;;;;;;;42.87;18.13;;;-5.10;99.90;;;;;;5050240;28;20215;-72
2021/12/28 07:12:33;;;;;;;54.67;20.70;;;-5.10;99.90;;;;;;5050929;28;20344;-72
2021/12/28 07:15:22;;;;;;;30.33;12.50;;;-5.10;99.90;;;;;;5052783;28;20219;-71
2021/12/28 07:18:11;;;;;;;44.50;19.13;;;-5.00;99.90;;;;;;5052853;28;20230;-69
2021/12/28 07:21:00;;;;;;;50.20;19.27;;;-5.00;99.90;;;;;;5051913;28;20223;-69
2021/12/28 07:23:49;;;;;;;50.87;19.87;;;-5.00;99.90;;;;;;5048998;28;20215;-69
2021/12/28 07:26:39;;;;;;;54.83;21.37;;;-5.00;99.90;;;;;;5051392;28;20298;-71
2021/12/28 07:29:27;;;;;;;69.97;21.80;;;-5.00;99.90;;;;;;5048836;28;20220;-68
2021/12/28 07:32:16;;;;;;;58.23;21.50;;;-4.90;99.90;;;;;;5052778;28;20233;-73
2021/12/28 07:35:06;;;;;;;40.50;13.73;;;-4.90;99.90;;;;;;5048618;28;20235;-69
2021/12/28 07:37:54;;;;;;;43.60;18.73;;;-4.70;99.90;;;;;;5039687;28;20216;-70
2021/12/28 07:40:43;;;;;;;28.87;10.53;;;-4.70;99.90;;;;;;5038793;28;20218;-70
2021/12/28 07:43:33;;;;;;;39.50;15.07;;;-4.80;99.90;;;;;;5028650;28;20223;-72
2021/12/28 07:46:22;;;;;;;49.43;21.20;;;-4.90;99.90;;;;;;5050488;28;20334;-69
2021/12/28 07:49:10;;;;;;;47.27;18.93;;;-4.70;99.90;;;;;;5053051;28;20579;-69
2021/12/28 07:51:59;;;;;;;46.67;20.47;;;-4.70;99.90;;;;;;5040931;28;20257;-70
2021/12/28 07:54:47;;;;;;;37.63;15.67;;;-4.80;99.90;;;;;;5041213;28;20221;-69
2021/12/28 07:57:37;;;;;;;40.17;17.07;;;-4.70;99.90;;;;;;5049940;28;20221;-69
2021/12/28 08:00:28;;;;;;;46.37;20.33;;;-4.70;99.90;;;;;;5048759;28;20709;-71
2021/12/28 08:03:19;;;;;;;49.73;20.27;;;-4.60;99.90;;;;;;5053046;28;20238;-70
2021/12/28 08:06:07;;;;;;;45.20;18.83;;;-4.40;99.90;;;;;;5036338;28;20242;-70
2021/12/28 08:08:56;;;;;;;44.07;19.80;;;-4.40;99.90;;;;;;5047836;28;20229;-70
2021/12/28 08:11:45;;;;;;;35.00;14.93;;;-4.40;99.90;;;;;;5034438;28;20228;-69
2021/12/28 08:14:33;;;;;;;33.97;12.80;;;-4.50;99.90;;;;;;5043283;28;20238;-71
2021/12/28 08:17:28;;;;;;;46.67;19.67;;;-4.60;99.90;;;;;;5046329;28;20223;-69
2021/12/28 08:20:18;;;;;;;51.57;18.40;;;-4.70;99.90;;;;;;5054632;28;20230;-69
2021/12/28 08:23:07;;;;;;;42.67;18.87;;;-4.50;99.90;;;;;;5037551;28;20741;-68
2021/12/28 08:25:57;;;;;;;47.33;21.20;;;-4.60;99.90;;;;;;5053571;28;20219;-69
2021/12/28 08:28:49;;;;;;;50.63;20.47;;;-4.40;99.90;;;;;;5052152;28;20234;-69
2021/12/28 08:31:39;;;;;;;44.23;20.50;;;-4.30;99.90;;;;;;5051601;28;20673;-69
2021/12/28 08:34:29;;;;;;;48.37;22.60;;;-4.30;99.90;;;;;;5051592;28;20227;-69
2021/12/28 08:37:18;;;;;;;48.97;20.83;;;-4.20;99.90;;;;;;5050730;28;20224;-69
2021/12/28 08:40:09;;;;;;;47.13;21.27;;;-4.20;99.90;;;;;;5052176;28;20273;-68
2021/12/28 08:42:58;;;;;;;47.40;21.17;;;-4.20;99.90;;;;;;5051822;28;20316;-68
2021/12/28 08:45:47;;;;;;;50.77;21.77;;;-4.20;99.90;;;;;;5039222;28;20219;-69
2021/12/28 08:48:36;;;;;;;42.13;19.67;;;-4.20;99.90;;;;;;5037200;28;20230;-69
2021/12/28 08:51:26;;;;;;;44.77;22.10;;;-4.20;99.90;;;;;;5039473;28;20748;-70
2021/12/28 08:54:15;;;;;;;45.60;20.67;;;-4.10;99.90;;;;;;5050027;28;20718;-69
2021/12/28 08:57:04;;;;;;;39.17;18.87;;;-4.00;99.90;;;;;;5052651;28;20236;-70
2021/12/28 08:59:52;;;;;;;42.47;20.00;;;-4.00;99.90;;;;;;5057738;28;20234;-65
2021/12/28 09:02:41;;;;;;;50.03;22.03;;;-4.00;99.90;;;;;;5050766;28;20247;-67
2021/12/28 09:05:30;;;;;;;45.07;20.10;;;-4.10;99.90;;;;;;5050025;28;20225;-71
2021/12/28 09:08:20;;;;;;;40.37;18.20;;;-3.90;99.90;;;;;;5046109;28;20282;-70
2021/12/28 09:11:09;;;;;;;37.57;16.27;;;-3.90;99.90;;;;;;5053622;28;20233;-70
2021/12/28 09:13:57;;;;;;;51.93;27.73;;;-3.90;99.90;;;;;;5052373;28;20511;-70
2021/12/28 09:16:50;;;;;;;48.97;23.43;;;-3.90;99.90;;;;;;5039027;28;20496;-69
2021/12/28 09:19:38;;;;;;;46.77;23.30;;;-3.80;99.90;;;;;;5043401;28;20257;-69
2021/12/28 09:22:27;;;;;;;48.57;21.50;;;-3.80;99.90;;;;;;5055293;28;20226;-71
2021/12/28 09:25:17;;;;;;;33.70;15.97;;;-3.70;99.90;;;;;;5036906;28;20229;-68
2021/12/28 09:28:08;;;;;;;51.80;21.37;;;-3.70;99.90;;;;;;5054360;28;20221;-68
2021/12/28 09:30:56;;;;;;;43.80;17.73;;;-3.70;99.90;;;;;;5039539;28;20228;-69
2021/12/28 09:33:45;;;;;;;49.37;22.70;;;-3.80;99.90;;;;;;5054279;28;20638;-70
2021/12/28 09:36:34;;;;;;;47.80;22.70;;;-3.70;99.90;;;;;;5050264;28;20689;-70
2021/12/28 09:39:26;;;;;;;54.83;23.97;;;-3.60;99.90;;;;;;5047387;28;20226;-75
2021/12/28 09:42:18;;;;;;;51.37;20.90;;;-3.50;99.90;;;;;;5050370;28;20217;-75
2021/12/28 09:45:09;;;;;;;47.17;22.77;;;-3.50;99.90;;;;;;5050133;28;20221;-75
2021/12/28 09:47:58;;;;;;;47.07;21.30;;;-3.40;99.90;;;;;;5037712;28;20231;-73
2021/12/28 09:50:47;;;;;;;53.27;23.00;;;-3.40;99.90;;;;;;5049351;28;20270;-72
2021/12/28 09:53:38;;;;;;;49.00;21.17;;;-3.20;99.90;;;;;;5038888;28;20239;-71
2021/12/28 09:56:27;;;;;;;50.37;20.40;;;-3.20;99.90;;;;;;5045635;28;21535;-72
2021/12/28 09:59:17;;;;;;;53.03;23.30;;;-3.20;99.90;;;;;;5050385;28;20237;-72
2021/12/28 10:02:10;;;;;;;50.13;21.77;;;-3.10;99.90;;;;;;5043463;28;20368;-74
2021/12/28 10:05:04;;;;;;;50.10;23.43;;;-3.10;99.90;;;;;;5049329;28;20225;-71
2021/12/28 10:07:56;;;;;;;49.20;21.83;;;-2.90;99.90;;;;;;5050590;28;20236;-72
2021/12/28 10:10:47;;;;;;;50.53;23.20;;;-2.90;99.90;;;;;;5048498;28;20225;-72
2021/12/28 10:13:36;;;;;;;53.20;24.20;;;-2.90;99.90;;;;;;5050289;28;20232;-72
2021/12/28 10:16:49;;;;;;;34.33;14.17;;;-2.90;99.90;;;;;;5050578;28;20230;-72
2021/12/28 10:19:41;;;;;;;49.40;23.97;;;-2.90;99.90;;;;;;5055973;28;20689;-71
2021/12/28 10:22:33;;;;;;;48.60;22.17;;;-2.80;99.90;;;;;;5047353;28;20706;-72
2021/12/28 10:25:24;;;;;;;50.27;23.33;;;-2.80;99.90;;;;;;5052107;28;20230;-69
2021/12/28 10:28:16;;;;;;;47.77;22.27;;;-2.90;99.90;;;;;;5047994;28;20242;-72
2021/12/28 10:31:07;;;;;;;50.80;23.60;;;-2.80;99.90;;;;;;5040607;28;21030;-71
2021/12/28 10:33:57;;;;;;;30.60;12.53;;;-2.80;99.90;;;;;;5052934;28;20226;-70
2021/12/28 10:36:46;;;;;;;48.90;23.60;;;-2.80;99.90;;;;;;5052881;28;20274;-71
2021/12/28 10:39:44;;;;;;;57.73;25.27;;;-2.80;99.90;;;;;;5051231;28;20251;-71
2021/12/28 10:42:44;;;;;;;51.97;24.20;;;-2.70;99.90;;;;;;5050197;28;20218;-71
2021/12/28 10:45:37;;;;;;;52.23;24.73;;;-2.60;99.90;;;;;;5053554;28;20213;-71
2021/12/28 10:48:27;;;;;;;46.13;22.73;;;-2.50;99.90;;;;;;5053447;28;20559;-70
2021/12/28 10:51:21;;;;;;;48.67;22.37;;;-2.40;99.90;;;;;;5050206;28;20421;-70
2021/12/28 10:54:13;;;;;;;49.40;22.67;;;-2.50;99.90;;;;;;5036876;28;20224;-72
2021/12/28 10:57:03;;;;;;;58.17;26.90;;;-2.40;99.90;;;;;;5039187;28;21225;-74
2021/12/28 10:59:52;;;;;;;51.37;24.27;;;-2.40;99.90;;;;;;5050284;28;20259;-72
2021/12/28 11:02:41;;;;;;;50.67;25.60;;;-2.30;99.90;;;;;;5037696;28;20329;-70
2021/12/28 11:05:33;;;;;;;50.47;25.23;;;-2.30;99.90;;;;;;5050296;28;20225;-71
2021/12/28 11:08:25;;;;;;;53.33;25.30;;;-2.30;99.90;;;;;;5043934;28;20234;-70
2021/12/28 11:11:16;;;;;;;49.90;24.57;;;-2.20;99.90;;;;;;5041896;28;20773;-73
2021/12/28 11:14:06;;;;;;;48.03;24.70;;;-2.30;99.90;;;;;;5049153;28;20748;-72
2021/12/28 11:16:57;;;;;;;46.67;22.90;;;-2.20;99.90;;;;;;5048698;28;20700;-71
2021/12/28 11:19:49;;;;;;;47.83;22.37;;;-2.20;99.90;;;;;;5034524;28;20273;-71
2021/12/28 11:22:38;;;;;;;47.80;23.00;;;-2.30;99.90;;;;;;5049943;28;20212;-72
2021/12/28 11:25:30;;;;;;;51.97;24.83;;;-2.20;99.90;;;;;;5046124;28;20245;-72
2021/12/28 11:28:22;;;;;;;59.87;26.23;;;-2.20;99.90;;;;;;5045233;28;20220;-72
2021/12/28 11:31:15;;;;;;;53.80;26.57;;;-2.10;99.90;;;;;;5050704;28;20689;-72
2021/12/28 11:34:29;;;;;;;53.87;27.27;;;-2.00;99.90;;;;;;5052608;28;20906;-71
2021/12/28 11:37:20;;;;;;;51.37;25.40;;;-2.00;99.90;;;;;;5043841;28;20577;-70
2021/12/28 11:40:10;;;;;;;57.90;28.23;;;-2.10;99.90;;;;;;5038207;28;20226;-71
2021/12/28 11:43:00;;;;;;;53.40;28.23;;;-2.00;99.90;;;;;;5040814;28;20616;-70
2021/12/28 11:45:49;;;;;;;54.17;28.80;;;-2.00;99.90;;;;;;5047014;28;20216;-70
2021/12/28 11:48:38;;;;;;;56.83;27.93;;;-2.00;99.90;;;;;;5040174;28;20224;-71
2021/12/28 11:51:27;;;;;;;55.67;28.37;;;-2.00;99.90;;;;;;5042230;28;20303;-71
2021/12/28 11:54:18;;;;;;;57.33;28.37;;;-2.00;99.90;;;;;;5055721;28;20676;-70
2021/12/28 11:57:14;;;;;;;63.23;31.07;;;-1.90;99.90;;;;;;5040358;28;20240;-70
2021/12/28 12:00:09;;;;;;;60.50;28.90;;;-1.90;99.90;;;;;;5042085;28;20235;-69
2021/12/28 12:03:02;;;;;;;57.27;28.97;;;-1.90;99.90;;;;;;5061638;28;20322;-70
2021/12/28 12:05:51;;;;;;;61.33;30.53;;;-1.90;99.90;;;;;;5054399;28;20248;-70
2021/12/28 12:09:03;;;;;;;56.77;28.33;;;-1.80;99.90;;;;;;5055394;28;20278;-70
2021/12/28 12:12:11;;;;;;;53.57;28.90;;;-1.80;99.90;;;;;;5056838;28;20758;-70
2021/12/28 12:15:16;;;;;;;51.60;26.27;;;-1.70;99.90;;;;;;5043142;28;20692;-72
2021/12/28 12:18:04;;;;;;;56.73;28.43;;;-1.80;99.90;;;;;;5054789;28;20220;-70
2021/12/28 12:20:57;;;;;;;54.87;30.00;;;-1.80;99.90;;;;;;5055105;28;20277;-69
2021/12/28 12:23:54;;;;;;;52.40;26.57;;;-1.70;99.90;;;;;;5050330;28;20295;-70
2021/12/28 12:26:44;;;;;;;56.43;26.87;;;-1.70;99.90;;;;;;5054388;28;20261;-71
2021/12/28 12:29:33;;;;;;;54.17;27.73;;;-1.80;99.90;;;;;;5036807;28;20217;-70
2021/12/28 12:33:01;;;;;;;50.33;26.77;;;-1.80;99.90;;;;;;5049918;28;20223;-70
2021/12/28 12:35:54;;;;;;;56.23;29.50;;;-1.80;99.90;;;;;;5049702;28;20565;-72
2021/12/28 12:38:43;;;;;;;51.23;25.90;;;-1.80;99.90;;;;;;5054845;28;20697;-72
2021/12/28 12:41:45;;;;;;;51.07;27.97;;;-1.80;99.90;;;;;;5035627;28;20234;-71
2021/12/28 12:44:40;;;;;;;58.80;31.97;;;-1.70;99.90;;;;;;5042154;28;20212;-71
2021/12/28 12:47:30;;;;;;;53.70;28.40;;;-1.70;99.90;;;;;;5039874;28;20232;-73
2021/12/28 12:50:26;;;;;;;52.00;28.53;;;-1.80;99.90;;;;;;5035578;28;20216;-70
2021/12/28 12:53:42;;;;;;;52.93;26.87;;;-1.80;99.90;;;;;;5039027;28;20236;-72
2021/12/28 12:56:33;;;;;;;53.17;27.37;;;-1.80;99.90;;;;;;5049351;28;20225;-71
2021/12/28 12:59:25;;;;;;;57.70;28.73;;;-1.70;99.90;;;;;;5052748;28;21492;-71
2021/12/28 13:02:22;;;;;;;59.07;29.93;;;-1.70;99.90;;;;;;5039900;28;21501;-72
2021/12/28 13:05:23;;;;;;;54.73;28.90;;;-1.70;99.90;;;;;;5052913;28;20231;-71
2021/12/28 13:08:11;;;;;;;59.67;31.27;;;-1.70;99.90;;;;;;5056596;28;20573;-71
2021/12/28 13:11:00;;;;;;;52.57;27.83;;;-1.70;99.90;;;;;;5041699;28;20314;-71
2021/12/28 13:13:49;;;;;;;54.50;30.13;;;-1.80;99.90;;;;;;5040916;28;20239;-71
2021/12/28 13:16:38;;;;;;;56.47;30.10;;;-1.70;99.90;;;;;;5053748;28;20212;-71
2021/12/28 13:19:27;;;;;;;52.27;27.67;;;-1.70;99.90;;;;;;5049454;28;20313;-70
2021/12/28 13:22:17;;;;;;;58.17;30.10;;;-1.70;99.90;;;;;;5056747;28;20227;-70
2021/12/28 13:25:09;;;;;;;60.40;29.97;;;-1.70;99.90;;;;;;5042833;28;20220;-72
2021/12/28 13:27:59;;;;;;;54.17;29.33;;;-1.70;99.90;;;;;;5054877;28;20244;-70
2021/12/28 13:30:48;;;;;;;57.77;29.47;;;-1.70;99.90;;;;;;5051297;28;20220;-70
2021/12/28 13:33:37;;;;;;;58.77;29.27;;;-1.70;99.90;;;;;;5044031;28;20231;-71
2021/12/28 13:36:27;;;;;;;54.70;25.90;;;-1.70;99.90;;;;;;5041896;28;20227;-72
2021/12/28 13:39:18;;;;;;;66.23;30.47;;;-1.80;99.90;;;;;;5055322;28;20220;-71
2021/12/28 13:42:07;;;;;;;61.63;30.73;;;-1.70;99.90;;;;;;5038772;28;20220;-71
2021/12/28 13:44:55;;;;;;;56.40;28.97;;;-1.70;99.90;;;;;;5051287;28;20243;-70
2021/12/28 13:47:44;;;;;;;57.77;30.67;;;-1.70;99.90;;;;;;5028966;28;20365;-70
2021/12/28 13:50:33;;;;;;;64.50;30.37;;;-1.70;99.90;;;;;;5052445;28;20221;-70
2021/12/28 13:53:23;;;;;;;62.13;31.43;;;-1.70;99.90;;;;;;5036691;28;20228;-69
2021/12/28 13:56:16;;;;;;;61.33;32.37;;;-1.70;99.90;;;;;;5038326;28;20234;-70
2021/12/28 13:59:08;;;;;;;56.37;29.13;;;-1.70;99.90;;;;;;5049930;28;20287;-71
2021/12/28 14:01:57;;;;;;;57.87;28.70;;;-1.70;99.90;;;;;;5052240;28;20774;-71
2021/12/28 14:04:47;;;;;;;68.47;31.30;;;-1.70;99.90;;;;;;5049584;28;20250;-72
2021/12/28 14:07:36;;;;;;;61.37;28.80;;;-1.80;99.90;;;;;;5052317;28;20216;-70
2021/12/28 14:10:30;;;;;;;59.93;30.07;;;-1.70;99.90;;;;;;5036691;28;20224;-69
2021/12/28 14:13:22;;;;;;;63.47;31.17;;;-1.80;99.90;;;;;;5040499;28;20232;-70
2021/12/28 14:16:12;;;;;;;61.70;30.60;;;-1.80;99.90;;;;;;5048280;28;20285;-71
2021/12/28 14:19:00;;;;;;;63.13;31.00;;;-1.90;99.90;;;;;;5049563;28;20224;-71
2021/12/28 14:21:49;;;;;;;56.70;29.80;;;-1.80;99.90;;;;;;5046704;28;20223;-70
2021/12/28 14:24:38;;;;;;;59.27;29.47;;;-1.80;99.90;;;;;;5037039;28;20585;-70
2021/12/28 14:27:29;;;;;;;59.90;28.37;;;-1.80;99.90;;;;;;5048932;28;20295;-69
2021/12/28 14:30:26;;;;;;;57.33;27.60;;;-1.80;99.90;;;;;;5051894;28;20236;-68